sensor_id;sensor_type;location;lat;lon;timestamp;P1;durP1;ratioP1;P2;durP2;ratioP2
22916;SDS011;11624;53.250;7.456;2023-05-20T00:01:13;17.45;;;5.32;;
22916;SDS011;11624;53.250;7.456;2023-05-20T00:03:42;15.13;;;5.00;;
22916;SDS011;11624;53.250;7.456;2023-05-20T00:06:12;14.35;;;5.00;;
22916;SDS011;11624;53.250;7.456;2023-05-20T00:08:40;18.60;;;5.07;;
22916;SDS011;11624;53.250;7.456;2023-05-20T00:11:08;20.23;;;4.85;;
22916;SDS011;11624;53.250;7.456;2023-05-20T00:13:37;14.40;;;5.07;;
22916;SDS011;11624;53.250;7.456;2023-05-20T00:16:05;17.35;;;4.97;;
22916;SDS011;11624;53.250;7.456;2023-05-20T00:18:33;17.08;;;5.15;;
22916;SDS011;11624;53.250;7.456;2023-05-20T00:21:03;19.30;;;4.50;;
22916;SDS011;11624;53.250;7.456;2023-05-20T00:23:31;14.93;;;5.00;;
22916;SDS011;11624;53.250;7.456;2023-05-20T00:25:59;16.85;;;5.15;;
22916;SDS011;11624;53.250;7.456;2023-05-20T00:28:27;13.35;;;4.60;;
22916;SDS011;11624;53.250;7.456;2023-05-20T00:30:56;16.23;;;5.40;;
22916;SDS011;11624;53.250;7.456;2023-05-20T00:33:24;14.88;;;4.60;;
22916;SDS011;11624;53.250;7.456;2023-05-20T00:35:52;15.40;;;4.57;;
22916;SDS011;11624;53.250;7.456;2023-05-20T00:38:21;15.55;;;4.43;;
22916;SDS011;11624;53.250;7.456;2023-05-20T00:40:49;13.80;;;4.50;;
22916;SDS011;11624;53.250;7.456;2023-05-20T00:43:18;12.43;;;4.10;;
22916;SDS011;11624;53.250;7.456;2023-05-20T00:45:46;16.35;;;4.35;;
22916;SDS011;11624;53.250;7.456;2023-05-20T00:48:14;13.98;;;4.35;;
22916;SDS011;11624;53.250;7.456;2023-05-20T00:50:42;14.60;;;4.53;;
22916;SDS011;11624;53.250;7.456;2023-05-20T00:53:11;15.23;;;4.47;;
22916;SDS011;11624;53.250;7.456;2023-05-20T00:55:40;14.27;;;4.40;;
22916;SDS011;11624;53.250;7.456;2023-05-20T00:58:09;15.60;;;4.60;;
22916;SDS011;11624;53.250;7.456;2023-05-20T01:00:37;13.43;;;4.22;;
22916;SDS011;11624;53.250;7.456;2023-05-20T01:03:06;14.57;;;4.60;;
22916;SDS011;11624;53.250;7.456;2023-05-20T01:05:34;13.55;;;4.32;;
22916;SDS011;11624;53.250;7.456;2023-05-20T01:08:06;13.15;;;4.53;;
22916;SDS011;11624;53.250;7.456;2023-05-20T01:10:34;12.88;;;4.45;;
22916;SDS011;11624;53.250;7.456;2023-05-20T01:13:10;14.52;;;4.25;;
22916;SDS011;11624;53.250;7.456;2023-05-20T01:15:42;13.80;;;4.53;;
22916;SDS011;11624;53.250;7.456;2023-05-20T01:18:13;11.98;;;4.10;;
22916;SDS011;11624;53.250;7.456;2023-05-20T01:20:44;11.88;;;3.92;;
22916;SDS011;11624;53.250;7.456;2023-05-20T01:23:18;8.88;;;3.38;;
22916;SDS011;11624;53.250;7.456;2023-05-20T01:25:47;11.55;;;3.90;;
22916;SDS011;11624;53.250;7.456;2023-05-20T01:28:15;12.40;;;3.92;;
22916;SDS011;11624;53.250;7.456;2023-05-20T01:30:45;13.88;;;3.95;;
22916;SDS011;11624;53.250;7.456;2023-05-20T01:33:18;11.85;;;3.63;;
22916;SDS011;11624;53.250;7.456;2023-05-20T01:35:49;12.63;;;3.75;;
22916;SDS011;11624;53.250;7.456;2023-05-20T01:38:19;15.35;;;3.88;;
22916;SDS011;11624;53.250;7.456;2023-05-20T01:40:50;10.82;;;3.97;;
22916;SDS011;11624;53.250;7.456;2023-05-20T01:43:19;11.93;;;3.70;;
22916;SDS011;11624;53.250;7.456;2023-05-20T01:45:48;14.13;;;3.50;;
22916;SDS011;11624;53.250;7.456;2023-05-20T01:48:16;11.77;;;3.72;;
22916;SDS011;11624;53.250;7.456;2023-05-20T01:50:44;12.63;;;3.83;;
22916;SDS011;11624;53.250;7.456;2023-05-20T01:53:12;11.45;;;3.55;;
22916;SDS011;11624;53.250;7.456;2023-05-20T01:55:41;12.45;;;3.38;;
22916;SDS011;11624;53.250;7.456;2023-05-20T01:58:10;8.98;;;3.30;;
22916;SDS011;11624;53.250;7.456;2023-05-20T02:00:38;11.80;;;3.70;;
22916;SDS011;11624;53.250;7.456;2023-05-20T02:03:06;9.15;;;3.15;;
22916;SDS011;11624;53.250;7.456;2023-05-20T02:05:34;9.25;;;3.05;;
22916;SDS011;11624;53.250;7.456;2023-05-20T02:08:04;10.82;;;2.75;;
22916;SDS011;11624;53.250;7.456;2023-05-20T02:10:32;11.68;;;3.42;;
22916;SDS011;11624;53.250;7.456;2023-05-20T02:13:01;10.18;;;2.85;;
22916;SDS011;11624;53.250;7.456;2023-05-20T02:15:30;7.85;;;2.50;;
22916;SDS011;11624;53.250;7.456;2023-05-20T02:17:59;8.07;;;2.55;;
22916;SDS011;11624;53.250;7.456;2023-05-20T02:20:28;9.52;;;2.70;;
22916;SDS011;11624;53.250;7.456;2023-05-20T02:22:56;8.27;;;2.63;;
22916;SDS011;11624;53.250;7.456;2023-05-20T02:25:24;7.93;;;2.10;;
22916;SDS011;11624;53.250;7.456;2023-05-20T02:27:52;6.50;;;2.30;;
22916;SDS011;11624;53.250;7.456;2023-05-20T02:30:22;7.65;;;2.60;;
22916;SDS011;11624;53.250;7.456;2023-05-20T02:32:50;5.88;;;2.13;;
22916;SDS011;11624;53.250;7.456;2023-05-20T02:35:18;7.50;;;2.50;;
22916;SDS011;11624;53.250;7.456;2023-05-20T02:37:46;7.68;;;2.40;;
22916;SDS011;11624;53.250;7.456;2023-05-20T02:40:15;10.07;;;2.63;;
22916;SDS011;11624;53.250;7.456;2023-05-20T02:42:43;5.72;;;2.33;;
22916;SDS011;11624;53.250;7.456;2023-05-20T02:45:12;7.95;;;2.10;;
22916;SDS011;11624;53.250;7.456;2023-05-20T02:47:41;8.80;;;2.25;;
22916;SDS011;11624;53.250;7.456;2023-05-20T02:50:10;7.10;;;2.30;;
22916;SDS011;11624;53.250;7.456;2023-05-20T02:52:38;7.25;;;2.00;;
22916;SDS011;11624;53.250;7.456;2023-05-20T02:55:08;8.02;;;2.42;;
22916;SDS011;11624;53.250;7.456;2023-05-20T02:57:36;7.25;;;2.05;;
22916;SDS011;11624;53.250;7.456;2023-05-20T03:00:07;6.45;;;2.28;;
22916;SDS011;11624;53.250;7.456;2023-05-20T03:02:37;7.80;;;2.00;;
22916;SDS011;11624;53.250;7.456;2023-05-20T03:05:07;8.05;;;2.08;;
22916;SDS011;11624;53.250;7.456;2023-05-20T03:07:36;7.30;;;2.10;;
22916;SDS011;11624;53.250;7.456;2023-05-20T03:10:05;5.65;;;1.83;;
22916;SDS011;11624;53.250;7.456;2023-05-20T03:12:36;8.05;;;2.17;;
22916;SDS011;11624;53.250;7.456;2023-05-20T03:15:05;10.05;;;2.08;;
22916;SDS011;11624;53.250;7.456;2023-05-20T03:17:35;9.35;;;2.00;;
22916;SDS011;11624;53.250;7.456;2023-05-20T03:20:04;6.95;;;1.98;;
22916;SDS011;11624;53.250;7.456;2023-05-20T03:22:35;9.32;;;2.20;;
22916;SDS011;11624;53.250;7.456;2023-05-20T03:25:03;7.47;;;2.13;;
22916;SDS011;11624;53.250;7.456;2023-05-20T03:27:32;7.30;;;2.15;;
22916;SDS011;11624;53.250;7.456;2023-05-20T03:30:02;6.90;;;1.88;;
22916;SDS011;11624;53.250;7.456;2023-05-20T03:32:31;5.80;;;2.05;;
22916;SDS011;11624;53.250;7.456;2023-05-20T03:34:59;8.65;;;2.22;;
22916;SDS011;11624;53.250;7.456;2023-05-20T03:37:27;6.55;;;2.08;;
22916;SDS011;11624;53.250;7.456;2023-05-20T03:39:57;10.10;;;2.28;;
22916;SDS011;11624;53.250;7.456;2023-05-20T03:42:25;5.70;;;1.80;;
22916;SDS011;11624;53.250;7.456;2023-05-20T03:44:53;8.25;;;2.10;;
22916;SDS011;11624;53.250;7.456;2023-05-20T03:47:21;8.45;;;2.03;;
22916;SDS011;11624;53.250;7.456;2023-05-20T03:49:50;4.47;;;1.67;;
22916;SDS011;11624;53.250;7.456;2023-05-20T03:52:18;5.95;;;2.17;;
22916;SDS011;11624;53.250;7.456;2023-05-20T03:54:46;5.70;;;1.90;;
22916;SDS011;11624;53.250;7.456;2023-05-20T03:57:15;8.07;;;2.10;;
22916;SDS011;11624;53.250;7.456;2023-05-20T03:59:45;5.97;;;2.03;;
22916;SDS011;11624;53.250;7.456;2023-05-20T04:02:13;6.60;;;1.75;;
22916;SDS011;11624;53.250;7.456;2023-05-20T04:04:42;4.00;;;1.42;;
22916;SDS011;11624;53.250;7.456;2023-05-20T04:07:12;6.60;;;2.05;;
22916;SDS011;11624;53.250;7.456;2023-05-20T04:09:41;7.22;;;1.90;;
22916;SDS011;11624;53.250;7.456;2023-05-20T04:12:09;5.60;;;1.85;;
22916;SDS011;11624;53.250;7.456;2023-05-20T04:14:39;5.47;;;1.80;;
22916;SDS011;11624;53.250;7.456;2023-05-20T04:17:08;8.30;;;1.83;;
22916;SDS011;11624;53.250;7.456;2023-05-20T04:19:36;7.38;;;1.83;;
22916;SDS011;11624;53.250;7.456;2023-05-20T04:22:04;5.85;;;1.80;;
22916;SDS011;11624;53.250;7.456;2023-05-20T04:24:32;6.10;;;1.75;;
22916;SDS011;11624;53.250;7.456;2023-05-20T04:27:01;6.47;;;2.20;;
22916;SDS011;11624;53.250;7.456;2023-05-20T04:29:29;5.47;;;2.00;;
22916;SDS011;11624;53.250;7.456;2023-05-20T04:32:01;4.32;;;1.58;;
22916;SDS011;11624;53.250;7.456;2023-05-20T04:34:29;7.20;;;2.00;;
22916;SDS011;11624;53.250;7.456;2023-05-20T04:37:00;6.07;;;1.90;;
22916;SDS011;11624;53.250;7.456;2023-05-20T04:39:28;7.68;;;1.98;;
22916;SDS011;11624;53.250;7.456;2023-05-20T04:41:57;4.95;;;1.52;;
22916;SDS011;11624;53.250;7.456;2023-05-20T04:44:25;5.45;;;1.92;;
22916;SDS011;11624;53.250;7.456;2023-05-20T04:46:55;5.70;;;1.55;;
22916;SDS011;11624;53.250;7.456;2023-05-20T04:49:26;7.32;;;1.83;;
22916;SDS011;11624;53.250;7.456;2023-05-20T04:51:55;4.65;;;1.73;;
22916;SDS011;11624;53.250;7.456;2023-05-20T04:54:24;8.48;;;1.70;;
22916;SDS011;11624;53.250;7.456;2023-05-20T04:56:52;5.38;;;1.40;;
22916;SDS011;11624;53.250;7.456;2023-05-20T04:59:20;5.72;;;1.70;;
22916;SDS011;11624;53.250;7.456;2023-05-20T05:01:49;6.57;;;1.80;;
22916;SDS011;11624;53.250;7.456;2023-05-20T05:04:17;4.82;;;1.65;;
22916;SDS011;11624;53.250;7.456;2023-05-20T05:06:47;7.22;;;2.10;;
22916;SDS011;11624;53.250;7.456;2023-05-20T05:09:16;6.85;;;1.90;;
22916;SDS011;11624;53.250;7.456;2023-05-20T05:11:45;4.70;;;1.90;;
22916;SDS011;11624;53.250;7.456;2023-05-20T05:14:13;5.45;;;1.75;;
22916;SDS011;11624;53.250;7.456;2023-05-20T05:16:41;6.13;;;1.73;;
22916;SDS011;11624;53.250;7.456;2023-05-20T05:19:10;6.75;;;1.80;;
22916;SDS011;11624;53.250;7.456;2023-05-20T05:21:39;8.70;;;1.88;;
22916;SDS011;11624;53.250;7.456;2023-05-20T05:24:09;8.13;;;2.00;;
22916;SDS011;11624;53.250;7.456;2023-05-20T05:26:37;6.45;;;1.65;;
22916;SDS011;11624;53.250;7.456;2023-05-20T05:29:05;3.50;;;1.70;;
22916;SDS011;11624;53.250;7.456;2023-05-20T05:31:36;4.28;;;1.63;;
22916;SDS011;11624;53.250;7.456;2023-05-20T05:34:05;7.20;;;2.03;;
22916;SDS011;11624;53.250;7.456;2023-05-20T05:36:33;5.70;;;1.55;;
22916;SDS011;11624;53.250;7.456;2023-05-20T05:39:02;5.43;;;1.60;;
22916;SDS011;11624;53.250;7.456;2023-05-20T05:41:31;4.78;;;1.70;;
22916;SDS011;11624;53.250;7.456;2023-05-20T05:44:00;7.32;;;1.90;;
22916;SDS011;11624;53.250;7.456;2023-05-20T05:46:28;9.43;;;1.70;;
22916;SDS011;11624;53.250;7.456;2023-05-20T05:48:57;7.40;;;1.70;;
22916;SDS011;11624;53.250;7.456;2023-05-20T05:51:26;6.35;;;1.80;;
22916;SDS011;11624;53.250;7.456;2023-05-20T05:53:55;10.98;;;2.13;;
22916;SDS011;11624;53.250;7.456;2023-05-20T05:56:23;11.25;;;1.98;;
22916;SDS011;11624;53.250;7.456;2023-05-20T05:58:53;5.95;;;1.80;;
22916;SDS011;11624;53.250;7.456;2023-05-20T06:01:21;6.00;;;2.00;;
22916;SDS011;11624;53.250;7.456;2023-05-20T06:03:49;6.20;;;1.80;;
22916;SDS011;11624;53.250;7.456;2023-05-20T06:06:18;9.27;;;1.90;;
22916;SDS011;11624;53.250;7.456;2023-05-20T06:08:47;6.72;;;1.88;;
22916;SDS011;11624;53.250;7.456;2023-05-20T06:11:15;6.35;;;1.80;;
22916;SDS011;11624;53.250;7.456;2023-05-20T06:13:43;7.55;;;2.03;;
22916;SDS011;11624;53.250;7.456;2023-05-20T06:16:12;5.60;;;1.80;;
22916;SDS011;11624;53.250;7.456;2023-05-20T06:18:41;7.05;;;1.80;;
22916;SDS011;11624;53.250;7.456;2023-05-20T06:21:09;6.68;;;1.80;;
22916;SDS011;11624;53.250;7.456;2023-05-20T06:23:38;6.57;;;2.00;;
22916;SDS011;11624;53.250;7.456;2023-05-20T06:26:09;6.88;;;1.77;;
22916;SDS011;11624;53.250;7.456;2023-05-20T06:28:37;7.75;;;2.20;;
22916;SDS011;11624;53.250;7.456;2023-05-20T06:31:06;6.22;;;2.05;;
22916;SDS011;11624;53.250;7.456;2023-05-20T06:33:36;6.47;;;1.98;;
22916;SDS011;11624;53.250;7.456;2023-05-20T06:36:08;7.50;;;1.90;;
22916;SDS011;11624;53.250;7.456;2023-05-20T06:38:36;7.70;;;2.50;;
22916;SDS011;11624;53.250;7.456;2023-05-20T06:41:05;5.75;;;1.80;;
22916;SDS011;11624;53.250;7.456;2023-05-20T06:43:33;6.70;;;1.90;;
22916;SDS011;11624;53.250;7.456;2023-05-20T06:46:03;6.10;;;2.10;;
22916;SDS011;11624;53.250;7.456;2023-05-20T06:48:36;7.18;;;2.33;;
22916;SDS011;11624;53.250;7.456;2023-05-20T06:51:06;8.48;;;1.98;;
22916;SDS011;11624;53.250;7.456;2023-05-20T06:53:35;6.25;;;1.95;;
22916;SDS011;11624;53.250;7.456;2023-05-20T06:56:04;6.35;;;2.20;;
22916;SDS011;11624;53.250;7.456;2023-05-20T06:58:32;8.88;;;2.00;;
22916;SDS011;11624;53.250;7.456;2023-05-20T07:01:00;8.20;;;2.35;;
22916;SDS011;11624;53.250;7.456;2023-05-20T07:03:29;8.02;;;2.38;;
22916;SDS011;11624;53.250;7.456;2023-05-20T07:05:58;8.65;;;2.40;;
22916;SDS011;11624;53.250;7.456;2023-05-20T07:08:27;9.75;;;2.42;;
22916;SDS011;11624;53.250;7.456;2023-05-20T07:10:55;9.48;;;2.13;;
22916;SDS011;11624;53.250;7.456;2023-05-20T07:13:23;6.20;;;1.98;;
22916;SDS011;11624;53.250;7.456;2023-05-20T07:15:51;5.10;;;1.83;;
22916;SDS011;11624;53.250;7.456;2023-05-20T07:18:20;4.85;;;1.85;;
22916;SDS011;11624;53.250;7.456;2023-05-20T07:20:52;7.35;;;2.30;;
22916;SDS011;11624;53.250;7.456;2023-05-20T07:23:59;6.78;;;2.13;;
22916;SDS011;11624;53.250;7.456;2023-05-20T07:26:27;7.82;;;2.33;;
22916;SDS011;11624;53.250;7.456;2023-05-20T07:28:59;8.73;;;2.22;;
22916;SDS011;11624;53.250;7.456;2023-05-20T07:31:27;10.52;;;2.55;;
22916;SDS011;11624;53.250;7.456;2023-05-20T07:33:55;9.93;;;2.35;;
22916;SDS011;11624;53.250;7.456;2023-05-20T07:36:24;6.38;;;2.08;;
22916;SDS011;11624;53.250;7.456;2023-05-20T07:38:54;7.60;;;2.08;;
22916;SDS011;11624;53.250;7.456;2023-05-20T07:41:34;8.43;;;2.17;;
22916;SDS011;11624;53.250;7.456;2023-05-20T07:44:04;9.23;;;2.25;;
22916;SDS011;11624;53.250;7.456;2023-05-20T07:46:36;5.68;;;2.20;;
22916;SDS011;11624;53.250;7.456;2023-05-20T07:49:05;8.13;;;2.40;;
22916;SDS011;11624;53.250;7.456;2023-05-20T07:51:34;8.77;;;2.45;;
22916;SDS011;11624;53.250;7.456;2023-05-20T07:54:03;6.07;;;2.13;;
22916;SDS011;11624;53.250;7.456;2023-05-20T07:56:31;7.28;;;2.38;;
22916;SDS011;11624;53.250;7.456;2023-05-20T07:59:01;10.25;;;2.47;;
22916;SDS011;11624;53.250;7.456;2023-05-20T08:01:36;8.60;;;2.47;;
22916;SDS011;11624;53.250;7.456;2023-05-20T08:04:05;6.85;;;2.38;;
22916;SDS011;11624;53.250;7.456;2023-05-20T08:06:35;8.48;;;2.58;;
22916;SDS011;11624;53.250;7.456;2023-05-20T08:09:05;6.38;;;2.30;;
22916;SDS011;11624;53.250;7.456;2023-05-20T08:11:37;7.03;;;2.20;;
22916;SDS011;11624;53.250;7.456;2023-05-20T08:14:07;6.90;;;2.38;;
22916;SDS011;11624;53.250;7.456;2023-05-20T08:16:40;7.50;;;2.40;;
22916;SDS011;11624;53.250;7.456;2023-05-20T08:19:09;8.20;;;2.58;;
22916;SDS011;11624;53.250;7.456;2023-05-20T08:21:37;6.93;;;2.30;;
22916;SDS011;11624;53.250;7.456;2023-05-20T08:24:05;5.28;;;2.22;;
22916;SDS011;11624;53.250;7.456;2023-05-20T08:26:34;9.68;;;2.50;;
22916;SDS011;11624;53.250;7.456;2023-05-20T08:29:03;7.20;;;2.58;;
22916;SDS011;11624;53.250;7.456;2023-05-20T08:31:33;5.70;;;2.15;;
22916;SDS011;11624;53.250;7.456;2023-05-20T08:34:01;6.60;;;2.72;;
22916;SDS011;11624;53.250;7.456;2023-05-20T08:36:29;7.32;;;2.55;;
22916;SDS011;11624;53.250;7.456;2023-05-20T08:38:58;7.90;;;2.38;;
22916;SDS011;11624;53.250;7.456;2023-05-20T08:41:26;8.88;;;2.38;;
22916;SDS011;11624;53.250;7.456;2023-05-20T08:43:56;9.40;;;2.33;;
22916;SDS011;11624;53.250;7.456;2023-05-20T08:46:27;7.25;;;2.50;;
22916;SDS011;11624;53.250;7.456;2023-05-20T08:48:59;7.50;;;2.40;;
22916;SDS011;11624;53.250;7.456;2023-05-20T08:51:27;11.07;;;3.38;;
22916;SDS011;11624;53.250;7.456;2023-05-20T08:53:58;8.65;;;2.78;;
22916;SDS011;11624;53.250;7.456;2023-05-20T08:56:26;7.65;;;3.00;;
22916;SDS011;11624;53.250;7.456;2023-05-20T08:58:56;7.38;;;2.63;;
22916;SDS011;11624;53.250;7.456;2023-05-20T09:01:24;9.18;;;2.80;;
22916;SDS011;11624;53.250;7.456;2023-05-20T09:03:52;7.22;;;2.50;;
22916;SDS011;11624;53.250;7.456;2023-05-20T09:06:22;7.35;;;2.25;;
22916;SDS011;11624;53.250;7.456;2023-05-20T09:08:50;7.93;;;2.55;;
22916;SDS011;11624;53.250;7.456;2023-05-20T09:11:18;11.32;;;2.50;;
22916;SDS011;11624;53.250;7.456;2023-05-20T09:13:48;10.23;;;3.00;;
22916;SDS011;11624;53.250;7.456;2023-05-20T09:16:17;9.45;;;2.70;;
22916;SDS011;11624;53.250;7.456;2023-05-20T09:18:45;7.78;;;2.88;;
22916;SDS011;11624;53.250;7.456;2023-05-20T09:21:13;6.55;;;2.47;;
22916;SDS011;11624;53.250;7.456;2023-05-20T09:23:47;5.82;;;2.45;;
22916;SDS011;11624;53.250;7.456;2023-05-20T09:26:16;7.68;;;2.47;;
22916;SDS011;11624;53.250;7.456;2023-05-20T09:28:45;6.28;;;2.47;;
22916;SDS011;11624;53.250;7.456;2023-05-20T09:31:13;8.40;;;2.60;;
22916;SDS011;11624;53.250;7.456;2023-05-20T09:33:41;7.43;;;2.20;;
22916;SDS011;11624;53.250;7.456;2023-05-20T09:36:10;5.38;;;2.13;;
22916;SDS011;11624;53.250;7.456;2023-05-20T09:38:42;9.23;;;2.60;;
22916;SDS011;11624;53.250;7.456;2023-05-20T09:41:14;7.82;;;2.53;;
22916;SDS011;11624;53.250;7.456;2023-05-20T09:43:42;7.43;;;2.50;;
22916;SDS011;11624;53.250;7.456;2023-05-20T09:46:11;7.72;;;2.42;;
22916;SDS011;11624;53.250;7.456;2023-05-20T09:48:40;10.38;;;2.55;;
22916;SDS011;11624;53.250;7.456;2023-05-20T09:51:09;7.45;;;2.30;;
22916;SDS011;11624;53.250;7.456;2023-05-20T09:53:39;7.93;;;2.50;;
22916;SDS011;11624;53.250;7.456;2023-05-20T09:56:08;6.60;;;2.35;;
22916;SDS011;11624;53.250;7.456;2023-05-20T09:58:38;7.82;;;2.35;;
22916;SDS011;11624;53.250;7.456;2023-05-20T10:01:08;7.60;;;2.40;;
22916;SDS011;11624;53.250;7.456;2023-05-20T10:03:36;11.90;;;2.67;;
22916;SDS011;11624;53.250;7.456;2023-05-20T10:06:16;9.15;;;2.42;;
22916;SDS011;11624;53.250;7.456;2023-05-20T10:08:59;7.05;;;2.30;;
22916;SDS011;11624;53.250;7.456;2023-05-20T10:11:45;8.18;;;2.50;;
22916;SDS011;11624;53.250;7.456;2023-05-20T10:14:27;8.85;;;2.35;;
22916;SDS011;11624;53.250;7.456;2023-05-20T10:17:09;8.98;;;2.55;;
22916;SDS011;11624;53.250;7.456;2023-05-20T10:19:43;5.10;;;2.13;;
22916;SDS011;11624;53.250;7.456;2023-05-20T10:22:11;7.82;;;2.20;;
22916;SDS011;11624;53.250;7.456;2023-05-20T10:24:40;7.43;;;2.55;;
22916;SDS011;11624;53.250;7.456;2023-05-20T10:27:10;8.05;;;2.40;;
22916;SDS011;11624;53.250;7.456;2023-05-20T10:29:41;8.73;;;2.60;;
22916;SDS011;11624;53.250;7.456;2023-05-20T10:32:10;7.93;;;2.58;;
22916;SDS011;11624;53.250;7.456;2023-05-20T10:34:48;13.10;;;2.78;;
22916;SDS011;11624;53.250;7.456;2023-05-20T10:37:22;9.95;;;2.38;;
22916;SDS011;11624;53.250;7.456;2023-05-20T10:39:51;7.45;;;2.45;;
22916;SDS011;11624;53.250;7.456;2023-05-20T10:42:29;7.95;;;2.55;;
22916;SDS011;11624;53.250;7.456;2023-05-20T10:44:58;8.55;;;2.35;;
22916;SDS011;11624;53.250;7.456;2023-05-20T10:47:27;7.32;;;2.40;;
22916;SDS011;11624;53.250;7.456;2023-05-20T10:49:55;7.03;;;2.30;;
22916;SDS011;11624;53.250;7.456;2023-05-20T10:52:23;10.25;;;2.70;;
22916;SDS011;11624;53.250;7.456;2023-05-20T10:54:55;8.63;;;2.47;;
22916;SDS011;11624;53.250;7.456;2023-05-20T10:57:25;7.00;;;2.42;;
22916;SDS011;11624;53.250;7.456;2023-05-20T10:59:53;9.27;;;2.75;;
22916;SDS011;11624;53.250;7.456;2023-05-20T11:02:24;10.40;;;2.40;;
22916;SDS011;11624;53.250;7.456;2023-05-20T11:04:54;9.43;;;2.45;;
22916;SDS011;11624;53.250;7.456;2023-05-20T11:07:24;8.05;;;2.70;;
22916;SDS011;11624;53.250;7.456;2023-05-20T11:09:53;8.10;;;2.72;;
22916;SDS011;11624;53.250;7.456;2023-05-20T11:12:21;8.23;;;2.50;;
22916;SDS011;11624;53.250;7.456;2023-05-20T11:14:50;8.27;;;2.33;;
22916;SDS011;11624;53.250;7.456;2023-05-20T11:17:19;7.25;;;2.40;;
22916;SDS011;11624;53.250;7.456;2023-05-20T11:19:49;9.45;;;2.70;;
22916;SDS011;11624;53.250;7.456;2023-05-20T11:22:17;7.68;;;2.50;;
22916;SDS011;11624;53.250;7.456;2023-05-20T11:24:45;6.72;;;2.58;;
22916;SDS011;11624;53.250;7.456;2023-05-20T11:27:13;10.32;;;2.70;;
22916;SDS011;11624;53.250;7.456;2023-05-20T11:29:42;4.97;;;2.40;;
22916;SDS011;11624;53.250;7.456;2023-05-20T11:32:10;10.00;;;2.72;;
22916;SDS011;11624;53.250;7.456;2023-05-20T11:34:39;6.88;;;2.35;;
22916;SDS011;11624;53.250;7.456;2023-05-20T11:37:09;7.82;;;2.58;;
22916;SDS011;11624;53.250;7.456;2023-05-20T11:39:38;7.82;;;2.63;;
22916;SDS011;11624;53.250;7.456;2023-05-20T11:42:06;9.32;;;2.95;;
22916;SDS011;11624;53.250;7.456;2023-05-20T11:44:34;5.95;;;2.47;;
22916;SDS011;11624;53.250;7.456;2023-05-20T11:47:02;7.47;;;2.63;;
22916;SDS011;11624;53.250;7.456;2023-05-20T11:49:37;11.50;;;2.80;;
22916;SDS011;11624;53.250;7.456;2023-05-20T11:52:07;6.93;;;2.92;;
22916;SDS011;11624;53.250;7.456;2023-05-20T11:54:38;10.07;;;2.55;;
22916;SDS011;11624;53.250;7.456;2023-05-20T11:57:06;7.03;;;2.63;;
22916;SDS011;11624;53.250;7.456;2023-05-20T11:59:34;10.38;;;2.60;;
22916;SDS011;11624;53.250;7.456;2023-05-20T12:02:03;7.20;;;2.50;;
22916;SDS011;11624;53.250;7.456;2023-05-20T12:04:31;7.72;;;2.40;;
22916;SDS011;11624;53.250;7.456;2023-05-20T12:06:59;6.80;;;2.38;;
22916;SDS011;11624;53.250;7.456;2023-05-20T12:09:30;11.95;;;2.65;;
22916;SDS011;11624;53.250;7.456;2023-05-20T12:11:59;9.63;;;2.75;;
22916;SDS011;11624;53.250;7.456;2023-05-20T12:14:28;8.27;;;2.75;;
22916;SDS011;11624;53.250;7.456;2023-05-20T12:16:56;8.02;;;2.58;;
22916;SDS011;11624;53.250;7.456;2023-05-20T12:19:25;7.35;;;2.50;;
22916;SDS011;11624;53.250;7.456;2023-05-20T12:21:53;7.25;;;2.40;;
22916;SDS011;11624;53.250;7.456;2023-05-20T12:24:21;7.55;;;2.42;;
22916;SDS011;11624;53.250;7.456;2023-05-20T12:26:51;9.05;;;2.17;;
22916;SDS011;11624;53.250;7.456;2023-05-20T12:29:19;7.72;;;2.30;;
22916;SDS011;11624;53.250;7.456;2023-05-20T12:31:47;8.65;;;2.20;;
22916;SDS011;11624;53.250;7.456;2023-05-20T12:34:15;8.50;;;2.33;;
22916;SDS011;11624;53.250;7.456;2023-05-20T12:36:43;7.90;;;2.03;;
22916;SDS011;11624;53.250;7.456;2023-05-20T12:39:12;7.35;;;2.08;;
22916;SDS011;11624;53.250;7.456;2023-05-20T12:41:43;5.90;;;2.22;;
22916;SDS011;11624;53.250;7.456;2023-05-20T12:44:12;11.07;;;2.65;;
22916;SDS011;11624;53.250;7.456;2023-05-20T12:46:40;6.82;;;2.05;;
22916;SDS011;11624;53.250;7.456;2023-05-20T12:49:09;7.55;;;2.10;;
22916;SDS011;11624;53.250;7.456;2023-05-20T12:51:37;9.30;;;2.50;;
22916;SDS011;11624;53.250;7.456;2023-05-20T12:54:05;8.23;;;2.55;;
22916;SDS011;11624;53.250;7.456;2023-05-20T12:56:33;9.15;;;2.40;;
22916;SDS011;11624;53.250;7.456;2023-05-20T12:59:01;5.72;;;2.00;;
22916;SDS011;11624;53.250;7.456;2023-05-20T13:01:30;9.77;;;2.17;;
22916;SDS011;11624;53.250;7.456;2023-05-20T13:03:59;6.00;;;2.17;;
22916;SDS011;11624;53.250;7.456;2023-05-20T13:06:27;10.15;;;2.78;;
22916;SDS011;11624;53.250;7.456;2023-05-20T13:08:55;8.13;;;2.70;;
22916;SDS011;11624;53.250;7.456;2023-05-20T13:11:23;7.47;;;2.10;;
22916;SDS011;11624;53.250;7.456;2023-05-20T13:13:52;8.25;;;2.42;;
22916;SDS011;11624;53.250;7.456;2023-05-20T13:16:21;15.80;;;2.70;;
22916;SDS011;11624;53.250;7.456;2023-05-20T13:18:51;7.15;;;2.13;;
22916;SDS011;11624;53.250;7.456;2023-05-20T13:21:19;8.48;;;2.30;;
22916;SDS011;11624;53.250;7.456;2023-05-20T13:23:47;6.20;;;2.05;;
22916;SDS011;11624;53.250;7.456;2023-05-20T13:26:16;6.45;;;2.25;;
22916;SDS011;11624;53.250;7.456;2023-05-20T13:28:44;9.73;;;2.28;;
22916;SDS011;11624;53.250;7.456;2023-05-20T13:31:12;7.28;;;2.50;;
22916;SDS011;11624;53.250;7.456;2023-05-20T13:33:40;8.75;;;2.33;;
22916;SDS011;11624;53.250;7.456;2023-05-20T13:36:10;9.43;;;2.05;;
22916;SDS011;11624;53.250;7.456;2023-05-20T13:38:39;6.00;;;2.25;;
22916;SDS011;11624;53.250;7.456;2023-05-20T13:41:07;8.93;;;2.35;;
22916;SDS011;11624;53.250;7.456;2023-05-20T13:43:35;6.80;;;2.22;;
22916;SDS011;11624;53.250;7.456;2023-05-20T13:46:04;8.15;;;2.47;;
22916;SDS011;11624;53.250;7.456;2023-05-20T13:48:32;7.97;;;1.83;;
22916;SDS011;11624;53.250;7.456;2023-05-20T13:51:00;4.57;;;1.80;;
22916;SDS011;11624;53.250;7.456;2023-05-20T13:53:30;6.53;;;2.13;;
22916;SDS011;11624;53.250;7.456;2023-05-20T13:55:58;9.43;;;2.58;;
22916;SDS011;11624;53.250;7.456;2023-05-20T13:58:26;5.10;;;1.90;;
22916;SDS011;11624;53.250;7.456;2023-05-20T14:00:54;6.22;;;2.20;;
22916;SDS011;11624;53.250;7.456;2023-05-20T14:03:22;5.32;;;2.28;;
22916;SDS011;11624;53.250;7.456;2023-05-20T14:05:53;9.48;;;2.22;;
22916;SDS011;11624;53.250;7.456;2023-05-20T14:08:21;4.75;;;2.08;;
22916;SDS011;11624;53.250;7.456;2023-05-20T14:10:50;8.05;;;2.33;;
22916;SDS011;11624;53.250;7.456;2023-05-20T14:13:20;6.57;;;2.08;;
22916;SDS011;11624;53.250;7.456;2023-05-20T14:15:48;10.35;;;2.35;;
22916;SDS011;11624;53.250;7.456;2023-05-20T14:18:17;8.15;;;2.13;;
22916;SDS011;11624;53.250;7.456;2023-05-20T14:20:46;7.20;;;2.20;;
22916;SDS011;11624;53.250;7.456;2023-05-20T14:23:14;7.57;;;2.55;;
22916;SDS011;11624;53.250;7.456;2023-05-20T14:25:42;6.78;;;2.17;;
22916;SDS011;11624;53.250;7.456;2023-05-20T14:28:12;9.93;;;2.30;;
22916;SDS011;11624;53.250;7.456;2023-05-20T14:30:40;5.90;;;2.17;;
22916;SDS011;11624;53.250;7.456;2023-05-20T14:33:08;6.72;;;2.33;;
22916;SDS011;11624;53.250;7.456;2023-05-20T14:35:36;6.30;;;2.35;;
22916;SDS011;11624;53.250;7.456;2023-05-20T14:38:04;7.50;;;2.30;;
22916;SDS011;11624;53.250;7.456;2023-05-20T14:40:32;5.82;;;1.92;;
22916;SDS011;11624;53.250;7.456;2023-05-20T14:43:02;6.10;;;2.25;;
22916;SDS011;11624;53.250;7.456;2023-05-20T14:45:32;9.20;;;2.13;;
22916;SDS011;11624;53.250;7.456;2023-05-20T14:48:00;6.07;;;2.03;;
22916;SDS011;11624;53.250;7.456;2023-05-20T14:50:28;8.50;;;2.22;;
22916;SDS011;11624;53.250;7.456;2023-05-20T14:52:56;12.93;;;2.22;;
22916;SDS011;11624;53.250;7.456;2023-05-20T14:55:24;8.95;;;2.50;;
22916;SDS011;11624;53.250;7.456;2023-05-20T14:57:52;6.05;;;2.00;;